Lair, Kentucky
Current Conditions -  °F | °C
As of 3:55 PM on Tuesday 21 Oct 2014 (Local Time) from KIOB Reporting Station
Overcast Overcast  
Wind Chill: 54°   Ceiling: 5000
Heat Index: 54°   Visibility: 7mi
Dew Point: 41°   Wind: 12mph
Humidity: 62%   Direction: 350°N
Pressure: 30.06"   Gusts: 16mph
Location:  38.4145°N, 84.2859°W
Report Text: KIOB 211955Z AUTO 35010G14KT 7SM OVC050 12/05 A3006 RMK AO2
Loading
Personal Weather Stations






























Interactive Weather Map
Tropical Storm Tracking
New forecast layout! Learn more

10-Day Weather Forecast

Advertisements
Track Severe Weather on mobile